Decoded Metar for PAEN (KENAI in AK, USA) (IATA:ENA) | Meteo·Mobile Aviation Weather
aviador You're here:

PAEN Decoded Metar

KENAI in AK, USA
Report Time2018-12-16 02:53:00
UTC Time2018-12-16 03:46:52
Flight Rules vfr VFR
Wind040° at 11 kt
W.Decomp.*RWY 01: 10.8 kt HW 2.1 kt RCW
W.Rank040° ranks 4
Current wind is above 040° avg. (7.6)
Visibility9999 m
Phenomena:N/A
Clouds:Scattered 120 Hf
Expected CloudBase > 400 ft AGL from Temp-Dew spread
CeilingNone
Temp-6°C (ISA -21)
Dew Point-7°C (93% RH)
AAT-12.8°C
QNH989 hPa
Density Alt-1,608 ft
Elevation89 ft
Report Wrong Elevation
Raw Report
PAEN 160253Z 04011KT 10SM SCT120 M06/M07 A2921=

Extra information for PAEN:More info

Metar Taf Metar & Taf Last 4 Metars F.Rules Stats Wind Profile Meteogram Temp Stats Airport Information Weather charts Add Link Nearby VenuesMetar ALERT Operation Metar Decoded Social comments

AIRNAV info for PAEN